Terminal Aerodrome Forecast
Issued by NWS Kansas City/Pleasant Hill, MO

Home | Current Version | Previous Version | Text Only | Print | Product List | Glossary On
Versions: 1 2 3 4 5 6 7 8 9 10 11 12 13 14 15 16 17 18
400
FTUS43 KEAX 032326
TAFMCI
TAF
KMCI 032326Z 0400/0424 27007KT P6SM FEW070
     FM041000 31007KT P6SM SCT070
     FM041600 34013G20KT P6SM FEW050=

USA.gov is the U.S. government's official web portal to all federal, state and local government web resources and services.